createdAt,value
2019-02-19T00:00:33.620Z,221.33
2019-02-19T00:03:37.902Z,210.17
2019-02-19T00:06:42.278Z,233.37
2019-02-19T00:09:46.618Z,233.10
2019-02-19T00:12:50.928Z,239.80
2019-02-19T00:15:55.295Z,238.53
2019-02-19T00:18:59.585Z,234.30
2019-02-19T00:22:04.073Z,231.03
2019-02-19T00:25:08.387Z,243.43
2019-02-19T00:28:12.757Z,236.50
2019-02-19T00:31:17.137Z,240.07
2019-02-19T00:34:21.420Z,233.23
2019-02-19T00:37:25.734Z,221.83
2019-02-19T00:40:30.070Z,226.37
2019-02-19T00:43:34.457Z,230.20
2019-02-19T00:46:38.849Z,219.83
2019-02-19T00:49:43.245Z,225.63
2019-02-19T00:52:47.541Z,225.30
2019-02-19T00:55:51.936Z,236.90
2019-02-19T00:58:58.549Z,230.93
2019-02-19T01:02:03.015Z,251.20
2019-02-19T01:05:07.508Z,251.53
2019-02-19T01:08:12.138Z,247.10
2019-02-19T01:11:16.501Z,242.33
2019-02-19T01:14:20.877Z,268.17
2019-02-19T01:17:25.191Z,232.30
2019-02-19T01:20:30.421Z,235.17
2019-02-19T01:23:34.805Z,228.93
2019-02-19T01:26:39.216Z,208.43
2019-02-19T01:29:43.583Z,205.37
2019-02-19T01:32:47.968Z,199.10
2019-02-19T01:35:52.264Z,184.17
2019-02-19T01:38:56.540Z,188.03
2019-02-19T01:42:00.894Z,184.57
2019-02-19T01:45:05.651Z,187.10
2019-02-19T01:48:09.928Z,199.20
2019-02-19T01:51:14.224Z,188.37
2019-02-19T01:54:18.518Z,194.07
2019-02-19T01:57:22.892Z,192.73
2019-02-19T02:00:27.181Z,197.13
2019-02-19T02:03:31.495Z,200.13
2019-02-19T02:06:35.699Z,189.80
2019-02-19T02:09:40.094Z,185.53
2019-02-19T02:12:44.407Z,186.20
2019-02-19T02:15:48.725Z,178.47
2019-02-19T02:18:52.994Z,184.10
2019-02-19T02:21:57.360Z,183.53
2019-02-19T02:25:01.702Z,167.77
2019-02-19T02:28:05.991Z,168.30
2019-02-19T02:31:10.287Z,169.60
2019-02-19T02:34:14.593Z,161.97
2019-02-19T02:37:18.896Z,165.40
2019-02-19T02:40:23.297Z,165.47
2019-02-19T02:43:27.680Z,171.03
2019-02-19T02:46:32.068Z,157.70
2019-02-19T02:49:36.347Z,159.07
2019-02-19T02:52:40.760Z,158.30
2019-02-19T02:55:45.111Z,161.37
2019-02-19T02:58:49.426Z,162.77
2019-02-19T03:01:53.708Z,152.83
2019-02-19T03:04:58.012Z,152.43
2019-02-19T03:08:06.091Z,155.90
2019-02-19T03:11:10.483Z,159.67
2019-02-19T03:14:14.889Z,159.67
2019-02-19T03:17:19.316Z,155.47
2019-02-19T03:20:23.591Z,152.17
2019-02-19T03:23:27.893Z,159.53
2019-02-19T03:26:32.251Z,166.17
2019-02-19T03:29:36.570Z,161.23
2019-02-19T03:32:40.941Z,161.47
2019-02-19T03:35:45.311Z,171.70
2019-02-19T03:38:49.661Z,173.57
2019-02-19T03:41:53.975Z,162.97
2019-02-19T03:44:58.328Z,174.70
2019-02-19T03:48:02.620Z,184.47
2019-02-19T03:51:06.900Z,174.87
2019-02-19T03:54:11.195Z,173.20
2019-02-19T03:57:15.481Z,166.37
2019-02-19T04:00:19.713Z,181.27
2019-02-19T04:03:24.102Z,159.27
2019-02-19T04:06:28.481Z,162.10
2019-02-19T04:09:32.789Z,161.20
2019-02-19T04:12:37.171Z,153.17
2019-02-19T04:15:41.643Z,170.70
2019-02-19T04:18:45.946Z,164.40
2019-02-19T04:21:50.292Z,163.03
2019-02-19T04:24:54.597Z,164.90
2019-02-19T04:27:58.905Z,170.00
2019-02-19T04:31:03.475Z,170.53
2019-02-19T04:34:07.746Z,156.33
2019-02-19T04:37:12.123Z,164.70
2019-02-19T04:40:16.404Z,156.70
2019-02-19T04:43:20.800Z,163.37
2019-02-19T04:46:31.463Z,153.13
2019-02-19T04:49:31.157Z,151.00
2019-02-19T04:52:35.563Z,157.73
2019-02-19T04:55:39.875Z,150.93
2019-02-19T04:58:44.153Z,144.10
2019-02-19T05:01:48.542Z,155.50
2019-02-19T05:04:52.902Z,157.53
2019-02-19T05:07:57.255Z,158.67
2019-02-19T05:11:01.608Z,145.23
2019-02-19T05:14:06.016Z,155.97
2019-02-19T05:17:10.442Z,155.60
2019-02-19T05:20:14.826Z,158.07
2019-02-19T05:23:19.153Z,151.00
2019-02-19T05:26:23.527Z,150.80
2019-02-19T05:29:27.800Z,151.10
2019-02-19T05:32:32.032Z,161.10
2019-02-19T05:35:36.312Z,148.53
2019-02-19T05:38:40.682Z,139.13
2019-02-19T05:41:45.050Z,142.40
2019-02-19T05:44:49.515Z,142.83
2019-02-19T05:47:53.857Z,146.90
2019-02-19T05:50:58.096Z,146.67
2019-02-19T05:54:02.376Z,139.80
2019-02-19T05:57:06.765Z,145.50
2019-02-19T06:00:12.061Z,141.77
2019-02-19T06:03:17.157Z,134.53
2019-02-19T06:06:21.515Z,138.33
2019-02-19T06:09:25.903Z,133.30
2019-02-19T06:12:30.241Z,151.13
2019-02-19T06:15:34.563Z,150.53
2019-02-19T06:18:38.848Z,148.27
2019-02-19T06:21:43.231Z,138.90
2019-02-19T06:24:47.933Z,145.90
2019-02-19T06:27:52.302Z,141.10
2019-02-19T06:30:56.662Z,150.03
2019-02-19T06:34:01.215Z,160.50
2019-02-19T06:37:05.547Z,168.20
2019-02-19T06:40:19.347Z,168.23
2019-02-19T06:43:23.648Z,163.83
2019-02-19T06:46:27.992Z,160.30
2019-02-19T06:49:32.264Z,169.67
2019-02-19T06:52:36.577Z,166.60
2019-02-19T06:55:40.848Z,177.17
2019-02-19T06:58:45.160Z,175.50
2019-02-19T07:02:03.993Z,174.30
2019-02-19T07:05:12.399Z,176.27
2019-02-19T07:08:16.692Z,169.90
2019-02-19T07:11:21.031Z,181.67
2019-02-19T07:14:25.320Z,179.83
2019-02-19T07:17:29.716Z,178.40
2019-02-19T07:20:34.135Z,176.83
2019-02-19T07:23:38.504Z,177.23
2019-02-19T07:26:42.776Z,172.60
2019-02-19T07:29:47.128Z,172.93
2019-02-19T07:32:51.481Z,173.43
2019-02-19T07:35:55.916Z,174.07
2019-02-19T07:39:00.184Z,165.10
2019-02-19T07:42:04.491Z,157.97
2019-02-19T07:45:09.276Z,171.40
2019-02-19T07:48:13.586Z,171.33
2019-02-19T07:51:17.885Z,154.77
2019-02-19T07:54:22.253Z,149.83
2019-02-19T07:57:26.526Z,168.47
2019-02-19T08:00:30.914Z,159.60
2019-02-19T08:03:35.268Z,162.33
2019-02-19T08:06:39.658Z,153.03
2019-02-19T08:09:43.930Z,143.77
2019-02-19T08:12:48.658Z,163.20
2019-02-19T08:15:53.003Z,159.73
2019-02-19T08:18:57.384Z,154.73
2019-02-19T08:22:01.662Z,149.03
2019-02-19T08:25:06.205Z,147.30
2019-02-19T08:28:10.473Z,144.87
2019-02-19T08:31:14.785Z,140.30
2019-02-19T08:34:19.136Z,139.10
2019-02-19T08:37:23.974Z,135.23
2019-02-19T08:40:28.321Z,132.37
2019-02-19T08:43:32.631Z,131.37
2019-02-19T08:46:36.895Z,125.87
2019-02-19T08:49:41.224Z,133.80
2019-02-19T08:52:45.567Z,129.10
2019-02-19T08:55:50.400Z,127.80
2019-02-19T08:58:54.755Z,131.77
2019-02-19T09:01:59.155Z,126.17
2019-02-19T09:05:03.502Z,127.00
2019-02-19T09:08:07.890Z,124.57
2019-02-19T09:11:12.172Z,120.37
2019-02-19T09:14:16.545Z,129.17
2019-02-19T09:17:20.852Z,129.47
2019-02-19T09:20:25.244Z,129.10
2019-02-19T09:23:29.532Z,132.83
2019-02-19T09:26:33.904Z,124.33
2019-02-19T09:29:38.171Z,127.97
2019-02-19T09:32:42.485Z,133.50
2019-02-19T09:35:46.755Z,139.30
2019-02-19T09:38:51.131Z,139.00
2019-02-19T09:41:55.485Z,130.73
2019-02-19T09:44:59.900Z,137.20
2019-02-19T09:48:04.270Z,130.27
2019-02-19T09:51:08.660Z,130.03
2019-02-19T09:54:12.941Z,120.73
2019-02-19T09:57:17.240Z,127.10
2019-02-19T10:00:21.519Z,121.63
2019-02-19T10:03:25.840Z,124.90
2019-02-19T10:06:30.180Z,127.33
2019-02-19T10:09:34.603Z,115.83
2019-02-19T10:12:38.956Z,123.37
2019-02-19T10:15:43.263Z,117.83
2019-02-19T10:18:47.631Z,118.40
2019-02-19T10:21:51.952Z,123.83
2019-02-19T10:24:56.309Z,110.63
2019-02-19T10:28:00.609Z,115.33
2019-02-19T10:31:04.877Z,118.67
2019-02-19T10:34:09.282Z,103.13
2019-02-19T10:37:13.648Z,108.17
2019-02-19T10:40:18.097Z,97.77
2019-02-19T10:43:23.533Z,93.30
2019-02-19T10:46:28.023Z,85.17
2019-02-19T10:49:32.360Z,89.23
2019-02-19T10:52:36.736Z,93.37
2019-02-19T10:55:41.015Z,77.43
2019-02-19T10:58:45.391Z,74.90
2019-02-19T11:01:49.689Z,76.93
2019-02-19T11:04:54.068Z,69.30
2019-02-19T11:07:58.433Z,79.87
2019-02-19T11:11:03.056Z,72.30
2019-02-19T11:14:07.265Z,66.00
2019-02-19T11:17:11.576Z,70.07
2019-02-19T11:20:15.888Z,75.70
2019-02-19T11:23:20.196Z,60.00
2019-02-19T11:26:24.482Z,65.60
2019-02-19T11:29:28.877Z,70.17
2019-02-19T11:32:33.222Z,72.43
2019-02-19T11:35:37.540Z,67.33
2019-02-19T11:38:41.832Z,55.77
2019-02-19T11:41:46.588Z,60.93
2019-02-19T11:44:50.948Z,51.83
2019-02-19T11:47:55.340Z,50.97
2019-02-19T11:50:59.674Z,45.80
2019-02-19T11:54:04.079Z,41.80
2019-02-19T11:57:08.389Z,47.53
2019-02-19T12:00:16.339Z,47.20
2019-02-19T12:03:20.617Z,48.40
2019-02-19T12:06:24.919Z,50.10
2019-02-19T12:09:29.198Z,46.87
2019-02-19T12:12:33.576Z,55.50
2019-02-19T12:15:37.854Z,52.27
2019-02-19T12:18:46.117Z,50.43
2019-02-19T12:21:48.143Z,54.67
2019-02-19T12:24:52.462Z,55.87
2019-02-19T12:27:56.740Z,48.47
2019-02-19T12:31:01.048Z,52.87
2019-02-19T12:34:05.333Z,51.57
2019-02-19T12:37:09.711Z,55.40
2019-02-19T12:40:14.165Z,43.30
2019-02-19T12:43:19.283Z,50.00
2019-02-19T12:46:23.631Z,46.57
2019-02-19T12:49:27.944Z,52.50
2019-02-19T12:52:32.348Z,48.20
2019-02-19T12:55:36.817Z,42.83
2019-02-19T12:58:41.101Z,41.87
2019-02-19T13:01:45.501Z,39.67
2019-02-19T13:04:49.883Z,40.67
2019-02-19T13:07:54.263Z,40.43
2019-02-19T13:10:58.674Z,39.83
2019-02-19T13:14:03.055Z,34.10
2019-02-19T13:17:07.424Z,33.83
2019-02-19T13:20:13.260Z,35.47
2019-02-19T13:23:17.531Z,32.03
2019-02-19T13:26:21.851Z,27.63
2019-02-19T13:29:26.133Z,33.93
2019-02-19T13:32:30.525Z,29.70
2019-02-19T13:35:34.882Z,31.60
2019-02-19T13:38:39.642Z,32.50
2019-02-19T13:41:44.041Z,37.47
2019-02-19T13:44:48.441Z,29.20
2019-02-19T13:47:52.731Z,29.90
2019-02-19T13:50:57.048Z,32.30
2019-02-19T13:54:26.471Z,29.47
2019-02-19T13:57:31.074Z,31.93
2019-02-19T14:00:38.207Z,30.43
2019-02-19T14:03:42.615Z,33.23
2019-02-19T14:06:46.955Z,34.93
2019-02-19T14:09:51.339Z,32.67
2019-02-19T14:12:55.625Z,37.47
2019-02-19T14:16:09.260Z,29.07
2019-02-19T14:19:21.323Z,33.53
2019-02-19T14:22:57.232Z,31.30
2019-02-19T14:26:19.376Z,30.60
2019-02-19T14:29:41.383Z,33.47
2019-02-19T14:33:11.944Z,31.33
2019-02-19T14:36:41.091Z,34.03
2019-02-19T14:40:10.549Z,29.20
2019-02-19T14:43:36.565Z,34.53
2019-02-19T14:46:59.837Z,32.03
2019-02-19T14:50:22.452Z,33.50
2019-02-19T14:53:51.598Z,31.80
2019-02-19T14:57:20.977Z,32.13
2019-02-19T15:00:47.010Z,28.90
2019-02-19T15:04:25.837Z,32.37
2019-02-19T15:07:35.513Z,33.67
2019-02-19T15:10:58.889Z,33.47
2019-02-19T15:14:24.843Z,30.57
2019-02-19T15:17:48.261Z,42.53
2019-02-19T15:21:16.313Z,36.83
2019-02-19T15:24:48.673Z,39.90
2019-02-19T15:28:06.989Z,34.50
2019-02-19T15:31:28.912Z,38.97
2019-02-19T15:34:58.329Z,37.87
2019-02-19T15:38:13.557Z,37.40
2019-02-19T15:41:51.883Z,37.90
2019-02-19T15:45:09.223Z,34.60
2019-02-19T15:48:46.020Z,37.63
2019-02-19T15:52:09.315Z,43.70
2019-02-19T15:55:32.383Z,35.90
2019-02-19T15:58:53.167Z,38.47
2019-02-19T16:02:22.561Z,41.47
2019-02-19T16:05:58.669Z,42.90
2019-02-19T16:09:13.633Z,46.97
2019-02-19T16:12:36.368Z,45.33
2019-02-19T16:15:58.275Z,46.97
2019-02-19T16:19:13.743Z,44.83
2019-02-19T16:22:39.765Z,42.83
2019-02-19T16:26:15.296Z,43.43
2019-02-19T16:29:33.931Z,48.40
2019-02-19T16:32:44.629Z,49.73
2019-02-19T16:36:07.969Z,46.17
2019-02-19T16:39:31.599Z,48.40
2019-02-19T16:42:52.121Z,48.50
2019-02-19T16:46:18.320Z,54.40
2019-02-19T16:49:40.302Z,57.03
2019-02-19T16:53:06.411Z,55.97
2019-02-19T16:56:16.883Z,58.47
2019-02-19T16:59:52.614Z,64.13
2019-02-19T17:03:15.929Z,62.17
2019-02-19T17:06:38.065Z,71.00
2019-02-19T17:09:53.036Z,69.57
2019-02-19T17:13:23.391Z,73.67
2019-02-19T17:16:53.453Z,67.87
2019-02-19T17:20:04.847Z,77.87
2019-02-19T17:23:17.905Z,81.47
2019-02-19T17:26:41.933Z,80.73
2019-02-19T17:30:04.360Z,89.10
2019-02-19T17:33:26.102Z,98.63
2019-02-19T17:36:48.077Z,85.40
2019-02-19T17:40:17.273Z,94.63
2019-02-19T17:43:39.569Z,88.70
2019-02-19T17:46:57.309Z,87.50
2019-02-19T17:50:19.361Z,83.57
2019-02-19T17:53:52.220Z,79.33
2019-02-19T17:57:19.911Z,85.03
2019-02-19T18:00:42.259Z,80.57
2019-02-19T18:03:58.815Z,80.10
2019-02-19T18:07:22.061Z,80.03
2019-02-19T18:10:48.315Z,79.13
2019-02-19T18:14:11.624Z,80.67
2019-02-19T18:17:37.633Z,81.63
2019-02-19T18:20:47.453Z,88.70
2019-02-19T18:23:48.088Z,81.87
2019-02-19T18:26:52.514Z,83.00
2019-02-19T18:29:56.875Z,84.23
2019-02-19T18:33:01.340Z,79.03
2019-02-19T18:36:05.842Z,80.87
2019-02-19T18:39:10.271Z,81.67
2019-02-19T18:42:14.617Z,85.93
2019-02-19T18:45:19.087Z,85.87
2019-02-19T18:48:23.376Z,83.80
2019-02-19T18:51:27.881Z,83.60
2019-02-19T18:54:32.260Z,90.07
2019-02-19T18:57:36.705Z,95.93
2019-02-19T19:00:41.077Z,88.87
2019-02-19T19:03:47.605Z,87.80
2019-02-19T19:06:51.981Z,88.53
2019-02-19T19:09:56.427Z,97.13
2019-02-19T19:13:00.900Z,86.17
2019-02-19T19:16:05.903Z,87.63
2019-02-19T19:19:10.199Z,88.37
2019-02-19T19:22:14.616Z,91.67
2019-02-19T19:25:19.039Z,100.00
2019-02-19T19:28:23.716Z,98.77
2019-02-19T19:31:33.626Z,107.17
2019-02-19T19:34:34.207Z,104.47
2019-02-19T19:37:38.592Z,104.03
2019-02-19T19:40:43.022Z,105.53
2019-02-19T19:43:47.437Z,112.07
2019-02-19T19:46:51.921Z,98.60
2019-02-19T19:49:56.293Z,107.27
2019-02-19T19:53:00.688Z,110.77
2019-02-19T19:56:05.083Z,124.07
2019-02-19T19:59:09.530Z,120.23
2019-02-19T20:02:13.907Z,137.00
2019-02-19T20:05:18.718Z,144.23
2019-02-19T20:08:23.329Z,135.10
2019-02-19T20:11:28.094Z,147.83
2019-02-19T20:14:32.889Z,147.07
2019-02-19T20:17:39.985Z,143.60
2019-02-19T20:20:48.360Z,134.43
2019-02-19T20:24:02.607Z,143.73
2019-02-19T20:27:07.600Z,142.50
2019-02-19T20:30:12.638Z,147.37
2019-02-19T20:33:19.482Z,144.97
2019-02-19T20:36:24.404Z,185.87
2019-02-19T20:39:28.897Z,150.47
2019-02-19T20:42:33.257Z,161.87
2019-02-19T20:45:37.789Z,229.53
2019-02-19T20:48:42.270Z,155.70
2019-02-19T20:51:46.653Z,185.17
2019-02-19T20:54:51.108Z,177.33
2019-02-19T20:57:55.720Z,158.43
2019-02-19T21:01:00.126Z,176.57
2019-02-19T21:04:04.588Z,167.30
2019-02-19T21:07:09.072Z,162.50
2019-02-19T21:10:15.239Z,230.03
2019-02-19T21:13:19.716Z,212.40
2019-02-19T21:16:24.139Z,253.63
2019-02-19T21:19:28.561Z,337.47
2019-02-19T21:22:33.024Z,256.87
2019-02-19T21:25:37.448Z,252.17
2019-02-19T21:28:42.017Z,215.07
2019-02-19T21:31:46.473Z,188.97
2019-02-19T21:34:50.956Z,180.97
2019-02-19T21:37:55.591Z,157.90
2019-02-19T21:41:00.025Z,182.63
2019-02-19T21:44:04.433Z,192.97
2019-02-19T21:47:08.779Z,160.90
2019-02-19T21:50:15.415Z,159.53
2019-02-19T21:53:19.246Z,152.13
2019-02-19T21:56:23.950Z,161.40
2019-02-19T21:59:28.328Z,120.23
2019-02-19T22:02:32.706Z,93.07
2019-02-19T22:05:37.069Z,69.57
2019-02-19T22:08:41.385Z,53.67
2019-02-19T22:11:45.732Z,43.97
2019-02-19T22:14:50.102Z,47.07
2019-02-19T22:17:54.559Z,40.30
2019-02-19T22:21:04.126Z,47.27
2019-02-19T22:24:08.577Z,36.30
2019-02-19T22:27:12.980Z,37.53
2019-02-19T22:30:17.436Z,47.57
2019-02-19T22:33:21.965Z,44.23
2019-02-19T22:36:26.416Z,53.70
2019-02-19T22:39:30.722Z,40.97
2019-02-19T22:42:50.170Z,63.13
2019-02-19T22:45:54.536Z,48.50
2019-02-19T22:48:58.813Z,42.80
2019-02-19T22:52:11.932Z,48.03
2019-02-19T22:55:21.599Z,54.93
2019-02-19T22:58:25.914Z,51.07
2019-02-19T23:01:33.259Z,59.23
2019-02-19T23:04:37.669Z,55.03
2019-02-19T23:07:42.033Z,56.23
2019-02-19T23:10:46.550Z,55.67
2019-02-19T23:13:50.928Z,58.20
2019-02-19T23:16:55.249Z,59.63
2019-02-19T23:19:59.517Z,72.33
2019-02-19T23:23:03.893Z,71.13
2019-02-19T23:26:08.170Z,78.77
2019-02-19T23:29:12.505Z,79.27
2019-02-19T23:32:16.877Z,75.60
2019-02-19T23:35:32.002Z,76.33
2019-02-19T23:38:36.269Z,75.93
2019-02-19T23:41:40.647Z,70.10
2019-02-19T23:44:44.937Z,71.60
2019-02-19T23:47:49.154Z,64.30
2019-02-19T23:50:53.416Z,73.93
2019-02-19T23:53:57.717Z,66.93
2019-02-19T23:57:01.984Z,67.60
